Terminal Aerodrome Forecast
Issued by NWS

Home | Current Version | Previous Version | Text Only | Print | Product List | Glossary On
Versions: 1 2 3 4 5 6 7 8 9 10 11 12 13 14
000
FTUS43 KMQT 272337
TAFIWD
TAF
KIWD 272337Z 2800/2824 07003KT P6SM VCSH OVC040
     FM280300 00000KT 5SM BR VCSH OVC020
     FM280500 22004KT 4SM BR OVC020
     FM280800 26004KT 3SM BR BKN015
     FM281300 22004KT 5SM BR SCT015
     FM281400 22004KT P6SM SCT025
      AMD LTD TO CLD VIS AND WIND=

USA.gov is the U.S. government's official web portal to all federal, state and local government web resources and services.